createdAt,value
2022-10-23T00:02:17.870Z,14.70
2022-10-23T00:04:49.897Z,14.30
2022-10-23T00:07:20.107Z,11.80
2022-10-23T00:09:50.015Z,12.20
2022-10-23T00:12:19.706Z,15.40
2022-10-23T00:14:49.433Z,12.60
2022-10-23T00:17:19.070Z,17.70
2022-10-23T00:19:48.541Z,13.30
2022-10-23T00:22:18.163Z,15.70
2022-10-23T00:24:47.787Z,13.10
2022-10-23T00:27:17.266Z,12.80
2022-10-23T00:29:46.933Z,13.70
2022-10-23T00:32:16.500Z,18.40
2022-10-23T00:34:46.267Z,11.60
2022-10-23T00:37:16.086Z,11.70
2022-10-23T00:39:45.879Z,14.30
2022-10-23T00:42:18.966Z,11.00
2022-10-23T00:45:15.987Z,14.60
2022-10-23T00:47:46.871Z,17.60
2022-10-23T00:50:17.220Z,16.80
2022-10-23T00:52:51.305Z,17.70
2022-10-23T00:55:24.928Z,26.20
2022-10-23T00:57:55.128Z,25.60
2022-10-23T01:00:28.282Z,26.70
2022-10-23T01:02:59.487Z,28.70
2022-10-23T01:05:42.149Z,29.40
2022-10-23T01:08:22.119Z,28.50
2022-10-23T01:11:03.773Z,26.40
2022-10-23T01:13:44.368Z,27.90
2022-10-23T01:16:23.778Z,25.90
2022-10-23T01:19:04.593Z,30.00
2022-10-23T01:21:53.872Z,25.20
2022-10-23T01:24:45.822Z,21.10
2022-10-23T01:27:23.812Z,25.80
2022-10-23T01:30:06.416Z,24.30
2022-10-23T01:32:52.496Z,22.50
2022-10-23T01:35:27.382Z,23.00
2022-10-23T01:38:09.450Z,22.40
2022-10-23T01:40:50.694Z,21.30
2022-10-23T01:43:25.808Z,22.70
2022-10-23T01:46:02.163Z,23.20
2022-10-23T01:48:34.779Z,18.60
2022-10-23T01:51:08.935Z,24.90
2022-10-23T01:53:44.354Z,19.70
2022-10-23T01:56:20.113Z,19.30
2022-10-23T01:58:55.078Z,20.30
2022-10-23T02:01:30.876Z,16.90
2022-10-23T02:04:06.563Z,24.00
2022-10-23T02:06:36.149Z,18.60
2022-10-23T02:09:06.781Z,16.60
2022-10-23T02:11:45.135Z,17.70
2022-10-23T02:14:26.425Z,16.40
2022-10-23T02:17:01.703Z,19.60
2022-10-23T02:19:42.300Z,26.40
2022-10-23T02:22:21.875Z,18.60
2022-10-23T02:24:56.926Z,22.90
2022-10-23T02:27:32.881Z,17.10
2022-10-23T02:30:07.843Z,20.80
2022-10-23T02:32:45.868Z,16.90
2022-10-23T02:35:16.677Z,21.10
2022-10-23T02:37:55.377Z,22.00
2022-10-23T02:40:35.558Z,25.10
2022-10-23T02:43:18.960Z,22.20
2022-10-23T02:45:59.824Z,21.10
2022-10-23T02:48:41.585Z,22.00
2022-10-23T02:51:20.945Z,19.50
2022-10-23T02:54:03.002Z,16.40
2022-10-23T02:56:44.214Z,15.40
2022-10-23T02:59:24.033Z,13.10
2022-10-23T03:02:02.417Z,11.70
2022-10-23T03:04:35.138Z,12.30
2022-10-23T03:07:05.610Z,19.20
2022-10-23T03:09:36.728Z,11.40
2022-10-23T03:12:06.869Z,11.20
2022-10-23T03:14:36.838Z,12.80
2022-10-23T03:17:06.583Z,11.50
2022-10-23T03:19:36.111Z,12.00
2022-10-23T03:22:06.464Z,12.10
2022-10-23T03:24:36.019Z,14.10
2022-10-23T03:27:05.650Z,12.30
2022-10-23T03:29:35.306Z,12.60
2022-10-23T03:32:05.338Z,15.40
2022-10-23T03:34:35.254Z,14.80
2022-10-23T03:37:06.305Z,13.10
2022-10-23T03:39:35.881Z,17.80
2022-10-23T03:42:05.948Z,14.70
2022-10-23T03:44:35.512Z,11.60
2022-10-23T03:47:05.462Z,13.70
2022-10-23T03:49:34.970Z,15.20
2022-10-23T03:52:08.947Z,14.70
2022-10-23T03:54:38.792Z,12.50
2022-10-23T03:57:08.262Z,12.40
2022-10-23T03:59:38.546Z,16.80
2022-10-23T04:02:08.749Z,14.60
2022-10-23T04:04:38.480Z,16.10
2022-10-23T04:07:08.300Z,24.10
2022-10-23T04:09:38.257Z,20.40
2022-10-23T04:12:09.288Z,18.30
2022-10-23T04:14:39.166Z,25.40
2022-10-23T04:17:08.980Z,21.50
2022-10-23T04:19:38.717Z,23.10
2022-10-23T04:22:08.437Z,24.90
2022-10-23T04:24:38.447Z,24.80
2022-10-23T04:27:08.719Z,23.70
2022-10-23T04:29:38.903Z,22.10
2022-10-23T04:32:09.509Z,21.40
2022-10-23T04:34:39.246Z,22.90
2022-10-23T04:37:09.031Z,23.60
2022-10-23T04:39:40.291Z,22.60
2022-10-23T04:42:09.908Z,22.40
2022-10-23T04:44:39.581Z,21.20
2022-10-23T04:47:09.374Z,21.50
2022-10-23T04:49:48.588Z,20.70
2022-10-23T04:52:38.228Z,20.40
2022-10-23T04:55:29.441Z,21.70
2022-10-23T04:58:22.391Z,23.60
2022-10-23T05:00:54.480Z,21.30
2022-10-23T05:03:29.418Z,20.30
2022-10-23T05:06:01.425Z,19.80
2022-10-23T05:08:49.465Z,21.20
2022-10-23T05:11:35.399Z,21.80
2022-10-23T05:14:10.456Z,23.30
2022-10-23T05:16:51.407Z,23.10
2022-10-23T05:19:30.388Z,21.80
2022-10-23T05:22:02.394Z,20.90
2022-10-23T05:24:50.755Z,22.30
2022-10-23T05:27:27.407Z,21.70
2022-10-23T05:30:00.418Z,17.30
2022-10-23T05:32:35.397Z,14.90
2022-10-23T05:35:12.387Z,15.40
2022-10-23T05:37:49.387Z,17.10
2022-10-23T05:40:27.488Z,16.70
2022-10-23T05:43:05.400Z,16.40
2022-10-23T05:45:50.476Z,15.50
2022-10-23T05:48:41.376Z,14.00
2022-10-23T05:51:20.393Z,14.40
2022-10-23T06:01:53.614Z,13.10
2022-10-23T06:04:46.197Z,13.30
2022-10-23T06:07:38.562Z,15.70
2022-10-23T06:10:15.485Z,15.80
2022-10-23T06:12:52.741Z,14.60
2022-10-23T06:15:27.293Z,15.20
2022-10-23T06:18:08.368Z,16.90
2022-10-23T06:20:44.777Z,26.00
2022-10-23T06:23:24.007Z,26.40
2022-10-23T06:26:20.373Z,25.60
2022-10-23T06:29:14.434Z,28.00
2022-10-23T06:31:49.166Z,24.60
2022-10-23T06:34:23.081Z,28.40
2022-10-23T06:36:57.444Z,31.10
2022-10-23T06:39:57.571Z,35.10
2022-10-23T06:43:01.695Z,30.30
2022-10-23T06:45:41.580Z,31.30
2022-10-23T06:48:21.549Z,33.70
2022-10-23T06:51:14.151Z,36.40
2022-10-23T06:53:50.012Z,28.60
2022-10-23T06:56:42.487Z,29.50
2022-10-23T06:59:16.592Z,26.20
2022-10-23T07:01:50.583Z,28.20
2022-10-23T07:04:26.549Z,31.00
2022-10-23T07:07:00.962Z,27.90
2022-10-23T07:09:41.490Z,28.70
2022-10-23T07:12:29.229Z,21.10
2022-10-23T07:15:24.085Z,28.10
2022-10-23T07:17:58.679Z,32.20
2022-10-23T07:20:36.546Z,30.10
2022-10-23T07:23:12.427Z,27.70
2022-10-23T07:25:46.537Z,27.30
2022-10-23T07:28:21.600Z,26.60
2022-10-23T07:31:02.378Z,25.80
2022-10-23T07:33:56.710Z,31.80
2022-10-23T07:36:31.205Z,22.40
2022-10-23T07:39:05.055Z,20.20
2022-10-23T07:41:40.586Z,22.90
2022-10-23T07:44:15.482Z,21.60
2022-10-23T07:46:49.435Z,25.40
2022-10-23T07:49:23.690Z,21.90
2022-10-23T07:51:59.081Z,22.90
2022-10-23T07:54:37.752Z,26.30
2022-10-23T07:57:26.877Z,26.40
2022-10-23T08:00:15.556Z,21.20
2022-10-23T08:02:54.092Z,22.70
2022-10-23T08:05:28.172Z,20.80
2022-10-23T08:08:06.378Z,22.50
2022-10-23T08:10:41.649Z,18.40
2022-10-23T08:13:20.410Z,40.20
2022-10-23T08:15:59.615Z,25.60
2022-10-23T08:19:03.604Z,16.20
2022-10-23T08:21:37.388Z,13.40
2022-10-23T08:24:14.037Z,16.50
2022-10-23T08:26:51.561Z,13.50
2022-10-23T08:29:27.073Z,12.10
2022-10-23T08:32:00.833Z,13.10
2022-10-23T08:34:44.962Z,12.40
2022-10-23T08:37:18.989Z,18.00
2022-10-23T08:39:55.016Z,15.00
2022-10-23T08:42:55.205Z,16.80
2022-10-23T08:45:39.673Z,11.30
2022-10-23T08:48:27.642Z,16.10
2022-10-23T08:51:29.026Z,13.90
2022-10-23T08:54:13.848Z,12.00
2022-10-23T08:56:52.163Z,12.20
2022-10-23T08:59:34.258Z,11.50
2022-10-23T09:02:22.667Z,14.30
2022-10-23T09:04:59.241Z,12.60
2022-10-23T09:07:52.712Z,11.70
2022-10-23T09:11:00.221Z,10.30
2022-10-23T09:14:04.585Z,11.00
2022-10-23T09:17:03.089Z,9.70
2022-10-23T09:19:37.421Z,8.60
2022-10-23T09:22:12.709Z,11.30
2022-10-23T09:24:53.014Z,11.80
2022-10-23T09:27:28.106Z,8.80
2022-10-23T09:30:02.052Z,8.40
2022-10-23T09:32:40.306Z,9.60
2022-10-23T09:35:29.778Z,9.10
2022-10-23T09:38:04.004Z,7.40
2022-10-23T09:40:44.696Z,7.30
2022-10-23T09:43:23.398Z,6.60
2022-10-23T09:46:06.234Z,5.70
2022-10-23T09:48:42.424Z,9.60
2022-10-23T09:51:24.982Z,9.00
2022-10-23T09:54:01.916Z,12.00
2022-10-23T09:56:42.267Z,8.10
2022-10-23T09:59:29.186Z,6.10
2022-10-23T10:02:05.306Z,7.20
2022-10-23T10:04:50.672Z,7.40
2022-10-23T10:07:29.415Z,7.50
2022-10-23T10:10:08.951Z,5.90
2022-10-23T10:12:58.399Z,6.10
2022-10-23T10:15:45.855Z,6.00
2022-10-23T10:18:32.561Z,5.60
2022-10-23T10:21:19.859Z,7.50
2022-10-23T10:24:01.647Z,7.10
2022-10-23T10:26:45.722Z,5.30
2022-10-23T10:29:37.073Z,5.90
2022-10-23T10:32:32.275Z,5.50
2022-10-23T10:35:25.179Z,5.00
2022-10-23T10:38:35.621Z,5.00
2022-10-23T10:41:37.630Z,5.70
2022-10-23T10:44:31.298Z,7.00
2022-10-23T10:47:21.616Z,6.10
2022-10-23T10:50:19.773Z,4.60
2022-10-23T10:53:25.343Z,6.20
2022-10-23T10:56:04.686Z,6.20
2022-10-23T10:58:47.815Z,5.60
2022-10-23T11:01:30.282Z,5.30
2022-10-23T11:04:15.676Z,5.80
2022-10-23T11:06:55.439Z,5.70
2022-10-23T11:09:33.462Z,6.80
2022-10-23T11:12:07.968Z,5.30
2022-10-23T11:14:46.285Z,5.70
2022-10-23T11:17:27.849Z,5.90
2022-10-23T11:20:10.081Z,5.60
2022-10-23T11:22:54.942Z,6.20
2022-10-23T11:26:02.099Z,5.30
2022-10-23T11:29:00.570Z,6.20
2022-10-23T11:31:47.261Z,4.90
2022-10-23T11:34:49.109Z,5.20
2022-10-23T11:37:26.921Z,4.90
2022-10-23T11:40:25.962Z,4.70
2022-10-23T11:43:01.485Z,6.60
2022-10-23T11:45:41.665Z,4.30
2022-10-23T11:48:41.273Z,6.90
2022-10-23T11:51:33.426Z,4.40
2022-10-23T11:54:27.839Z,6.70
2022-10-23T11:57:17.774Z,5.10
2022-10-23T12:00:00.994Z,6.00
2022-10-23T12:02:39.226Z,4.80
2022-10-23T12:05:42.227Z,4.00
2022-10-23T12:08:27.954Z,4.80
2022-10-23T12:11:02.283Z,4.60
2022-10-23T12:13:49.087Z,5.30
2022-10-23T12:16:23.057Z,4.60
2022-10-23T12:18:58.084Z,5.50
2022-10-23T12:21:41.044Z,5.30
2022-10-23T12:24:40.025Z,5.90
2022-10-23T12:27:31.818Z,5.00
2022-10-23T12:30:31.907Z,5.00
2022-10-23T12:33:24.067Z,6.60
2022-10-23T12:36:23.119Z,5.20
2022-10-23T12:38:58.859Z,5.50
2022-10-23T12:41:35.996Z,5.10
2022-10-23T12:44:14.054Z,4.80
2022-10-23T12:46:55.589Z,7.00
2022-10-23T12:49:34.957Z,5.90
2022-10-23T12:52:19.871Z,5.40
2022-10-23T12:54:53.995Z,4.60
2022-10-23T12:57:31.451Z,4.60
2022-10-23T13:00:17.734Z,4.10
2022-10-23T13:03:03.985Z,5.80
2022-10-23T13:05:39.030Z,4.70
2022-10-23T13:08:14.872Z,5.60
2022-10-23T13:10:57.018Z,5.20
2022-10-23T13:13:32.058Z,4.60
2022-10-23T13:16:17.366Z,4.00
2022-10-23T13:18:52.185Z,5.30
2022-10-23T13:21:29.615Z,4.50
2022-10-23T13:24:17.581Z,5.20
2022-10-23T13:26:51.758Z,5.80
2022-10-23T13:29:31.667Z,5.30
2022-10-23T13:32:22.967Z,5.20
2022-10-23T13:35:10.139Z,5.20
2022-10-23T13:37:51.755Z,5.00
2022-10-23T13:40:29.148Z,4.70
2022-10-23T13:43:03.035Z,6.40
2022-10-23T13:45:43.340Z,5.70
2022-10-23T13:48:18.753Z,5.40
2022-10-23T13:50:53.018Z,5.50
2022-10-23T13:53:26.717Z,8.00
2022-10-23T13:56:01.443Z,5.30
2022-10-23T13:58:35.899Z,5.30
2022-10-23T14:01:17.972Z,5.00
2022-10-23T14:03:53.184Z,6.10
2022-10-23T14:06:27.778Z,5.50
2022-10-23T14:09:01.772Z,5.50
2022-10-23T14:11:35.713Z,5.50
2022-10-23T14:14:10.004Z,6.40
2022-10-23T14:16:43.788Z,5.10
2022-10-23T14:19:17.473Z,6.00
2022-10-23T14:21:51.552Z,6.30
2022-10-23T14:24:25.894Z,7.90
2022-10-23T14:27:00.271Z,8.40
2022-10-23T14:29:36.669Z,7.10
2022-10-23T14:32:10.958Z,7.60
2022-10-23T14:34:51.504Z,8.20
2022-10-23T14:37:25.759Z,8.20
2022-10-23T14:40:00.212Z,7.60
2022-10-23T14:42:34.489Z,7.10
2022-10-23T14:45:10.699Z,8.70
2022-10-23T14:47:44.833Z,9.10
2022-10-23T14:50:20.481Z,10.90
2022-10-23T14:52:54.577Z,6.90
2022-10-23T14:55:28.489Z,8.40
2022-10-23T14:58:02.763Z,7.50
2022-10-23T15:00:36.727Z,6.90
2022-10-23T15:03:10.599Z,6.20
2022-10-23T15:05:46.988Z,7.40
2022-10-23T15:08:20.996Z,6.20
2022-10-23T15:10:54.985Z,6.80
2022-10-23T15:13:29.326Z,6.40
2022-10-23T15:16:16.332Z,5.50
2022-10-23T15:18:50.791Z,8.80
2022-10-23T15:21:24.998Z,7.00
2022-10-23T15:24:01.657Z,7.30
2022-10-23T15:26:36.197Z,9.60
2022-10-23T15:29:17.169Z,10.80
2022-10-23T15:31:56.100Z,15.80
2022-10-23T15:34:32.572Z,18.40
2022-10-23T15:37:07.629Z,15.80
2022-10-23T15:39:44.447Z,20.00
2022-10-23T15:42:19.214Z,27.20
2022-10-23T15:44:55.353Z,15.70
2022-10-23T15:47:29.331Z,14.20
2022-10-23T15:50:03.310Z,14.70
2022-10-23T15:52:38.017Z,12.00
2022-10-23T15:55:14.232Z,13.40
2022-10-23T15:57:50.107Z,11.30
2022-10-23T16:00:26.076Z,13.30
2022-10-23T16:03:03.087Z,14.80
2022-10-23T16:05:40.087Z,15.40
2022-10-23T16:08:16.261Z,12.50
2022-10-23T16:10:52.158Z,12.40
2022-10-23T16:13:29.094Z,16.30
2022-10-23T16:16:10.112Z,16.00
2022-10-23T16:18:47.154Z,13.30
2022-10-23T16:21:28.174Z,17.30
2022-10-23T16:24:07.271Z,22.30
2022-10-23T16:26:45.166Z,21.80
2022-10-23T16:29:22.244Z,23.40
2022-10-23T16:32:01.082Z,22.90
2022-10-23T16:34:35.947Z,23.00
2022-10-23T16:37:13.100Z,21.50
2022-10-23T16:40:15.066Z,26.40
2022-10-23T16:43:09.120Z,24.10
2022-10-23T16:45:50.087Z,26.50
2022-10-23T16:48:26.122Z,28.60
2022-10-23T16:51:02.106Z,29.20
2022-10-23T16:53:38.120Z,32.00
2022-10-23T16:56:17.136Z,30.20
2022-10-23T16:58:54.233Z,33.40
2022-10-23T17:01:34.108Z,29.30
2022-10-23T17:04:13.355Z,31.20
2022-10-23T17:06:50.325Z,28.10
2022-10-23T17:09:32.198Z,31.90
2022-10-23T17:12:10.195Z,29.60
2022-10-23T17:14:46.338Z,34.60
2022-10-23T17:17:22.266Z,31.20
2022-10-23T17:19:59.314Z,36.80
2022-10-23T17:22:36.189Z,42.20
2022-10-23T17:25:14.394Z,44.10
2022-10-23T17:27:51.192Z,39.40
2022-10-23T17:30:29.178Z,51.00
2022-10-23T17:33:06.185Z,50.10
2022-10-23T17:35:43.101Z,46.30
2022-10-23T17:38:20.082Z,48.10
2022-10-23T17:40:57.375Z,50.30
2022-10-23T17:43:32.180Z,48.70
2022-10-23T17:46:10.266Z,52.60
2022-10-23T17:48:47.391Z,57.00
2022-10-23T17:51:27.366Z,44.60
2022-10-23T18:02:33.259Z,40.40
2022-10-23T18:05:09.648Z,41.20
2022-10-23T18:07:44.000Z,46.40
2022-10-23T18:10:18.470Z,41.00
2022-10-23T18:12:53.331Z,39.70
2022-10-23T18:15:27.416Z,45.60
2022-10-23T18:18:01.903Z,46.80
2022-10-23T18:20:41.148Z,44.90
2022-10-23T18:23:15.304Z,45.90
2022-10-23T18:25:49.557Z,43.50
2022-10-23T18:28:24.033Z,54.10
2022-10-23T18:30:58.904Z,44.30
2022-10-23T18:33:33.336Z,42.80
2022-10-23T18:36:15.426Z,44.80
2022-10-23T18:38:49.978Z,43.30
2022-10-23T18:41:24.819Z,46.20
2022-10-23T18:43:59.428Z,45.20
2022-10-23T18:46:33.360Z,50.00
2022-10-23T18:49:09.219Z,49.10
2022-10-23T18:51:43.905Z,51.00
2022-10-23T18:54:21.343Z,53.20
2022-10-23T18:56:56.627Z,46.80
2022-10-23T18:59:31.611Z,42.60
2022-10-23T19:02:06.039Z,47.90
2022-10-23T19:04:40.392Z,43.20
2022-10-23T19:07:14.905Z,49.10
2022-10-23T19:09:49.842Z,50.50
2022-10-23T19:12:24.540Z,43.70
2022-10-23T19:15:00.377Z,41.90
2022-10-23T19:17:37.063Z,36.90
2022-10-23T19:20:18.254Z,40.70
2022-10-23T19:22:58.307Z,36.70
2022-10-23T19:25:36.377Z,36.60
2022-10-23T19:28:10.741Z,35.50
2022-10-23T19:30:45.463Z,32.10
2022-10-23T19:33:20.508Z,35.50
2022-10-23T19:35:55.477Z,35.30
2022-10-23T19:38:30.198Z,37.80
2022-10-23T19:41:05.051Z,37.20
2022-10-23T19:43:39.769Z,39.50
2022-10-23T19:46:13.816Z,39.50
2022-10-23T19:48:47.719Z,36.30
2022-10-23T19:51:22.212Z,41.80
2022-10-23T19:54:00.337Z,43.80
2022-10-23T19:56:35.511Z,56.80
2022-10-23T19:59:13.119Z,62.30
2022-10-23T20:01:48.904Z,49.10
2022-10-23T20:04:23.971Z,50.70
2022-10-23T20:06:57.819Z,48.60
2022-10-23T20:09:34.179Z,51.30
2022-10-23T20:12:09.439Z,45.50
2022-10-23T20:14:43.819Z,47.50
2022-10-23T20:17:19.005Z,44.00
2022-10-23T20:19:53.865Z,41.90
2022-10-23T20:22:28.532Z,39.50
2022-10-23T20:25:03.009Z,33.40
2022-10-23T20:30:19.081Z,30.70
2022-10-23T20:32:53.609Z,26.70
2022-10-23T20:35:28.129Z,27.20
2022-10-23T20:38:02.003Z,21.00
2022-10-23T20:40:36.744Z,22.50
2022-10-23T20:43:10.903Z,24.40
2022-10-23T20:45:45.024Z,23.30
2022-10-23T20:48:20.612Z,27.40
2022-10-23T20:50:55.605Z,23.50
2022-10-23T20:53:30.319Z,24.30
2022-10-23T20:56:08.059Z,24.40
2022-10-23T20:58:41.826Z,24.40
2022-10-23T21:01:19.267Z,23.40
2022-10-23T21:03:57.881Z,21.50
2022-10-23T21:06:46.105Z,20.20
2022-10-23T21:09:30.056Z,22.90
2022-10-23T21:12:03.755Z,22.60
2022-10-23T21:14:37.709Z,19.30
2022-10-23T21:17:16.851Z,24.70
2022-10-23T21:19:50.728Z,22.70
2022-10-23T21:22:24.472Z,20.80
2022-10-23T21:25:00.242Z,22.60
2022-10-23T21:27:35.290Z,18.00
2022-10-23T21:30:12.912Z,19.00
2022-10-23T21:32:46.796Z,18.00
2022-10-23T21:35:21.383Z,18.70
2022-10-23T21:37:55.446Z,18.70
2022-10-23T21:40:29.347Z,18.20
2022-10-23T21:43:03.368Z,20.50
2022-10-23T21:45:39.417Z,20.50
2022-10-23T21:48:13.425Z,20.70
2022-10-23T21:50:47.175Z,19.80
2022-10-23T21:53:20.927Z,19.10
2022-10-23T21:55:55.325Z,19.80
2022-10-23T21:58:29.036Z,22.20
2022-10-23T22:01:03.218Z,18.70
2022-10-23T22:03:37.143Z,19.30
2022-10-23T22:06:15.177Z,18.60
2022-10-23T22:08:49.511Z,21.50
2022-10-23T22:11:23.912Z,19.10
2022-10-23T22:13:58.040Z,19.30
2022-10-23T22:16:32.016Z,23.80
2022-10-23T22:19:07.558Z,21.40
2022-10-23T22:21:41.362Z,20.70
2022-10-23T22:24:16.141Z,22.90
2022-10-23T22:26:52.975Z,19.30
2022-10-23T22:29:29.901Z,19.50
2022-10-23T22:32:03.648Z,19.80
2022-10-23T22:34:53.654Z,26.20
2022-10-23T22:37:27.473Z,28.60
2022-10-23T22:40:01.879Z,29.00
2022-10-23T22:42:35.965Z,24.90
2022-10-23T22:45:12.106Z,21.50
2022-10-23T22:47:45.723Z,19.30
2022-10-23T22:50:19.739Z,20.00
2022-10-23T22:52:53.305Z,17.40
2022-10-23T22:55:26.863Z,15.10
2022-10-23T22:58:00.488Z,19.60
2022-10-23T23:00:34.262Z,19.50
2022-10-23T23:03:08.385Z,17.90
2022-10-23T23:05:47.020Z,14.50
2022-10-23T23:08:20.647Z,17.80
2022-10-23T23:10:58.802Z,16.50
2022-10-23T23:13:33.111Z,17.30
2022-10-23T23:16:08.816Z,14.10
2022-10-23T23:18:42.323Z,14.00
2022-10-23T23:21:16.402Z,15.10
2022-10-23T23:23:50.910Z,15.80
2022-10-23T23:26:25.644Z,16.30
2022-10-23T23:28:59.282Z,13.30
2022-10-23T23:31:32.933Z,12.70
2022-10-23T23:34:06.759Z,17.40
2022-10-23T23:36:40.433Z,14.90
2022-10-23T23:39:14.375Z,15.70
2022-10-23T23:41:47.930Z,15.60
2022-10-23T23:44:21.455Z,14.90
2022-10-23T23:46:55.143Z,15.60
2022-10-23T23:49:28.969Z,14.30
2022-10-23T23:52:02.696Z,15.80
2022-10-23T23:54:36.232Z,14.40
2022-10-23T23:57:10.932Z,16.70
2022-10-23T23:59:45.428Z,15.90
